logo dgac
Viernes 01 de Julio del 2022
Buscar por aerodromo o helipuerto
Ingrese nombre de aeródromo, localidad o designador OACI:

Aeródromo: General Bernardo O'Higgins (PUB) (SCCH)

Ubicación: Chillán, VIII Región, Chile (36º 34' 58'' S, 72º 01' 54'' W) Ver ubicación en el mapa

Pistas

Orientación Dimensión Pendiente Superficie Resistencia APCH THR RWY PAPI
04/22 1750 X 30 0,10 ASPH PCN 54 F/D/X/T No Sí (3º)
Horas de operación HJ
Elevación 152 m / 499 ft
Otra Información Adm : D.G.A.C
Uso : PUB
ubicado : 7 km E Chillán
TEL 422221655
email : aro.chillan@dgac.gob.cl

Otra información ver AIP-Chile Volumen I AD 3.9-3.8-C

CCCM/FCCV Descargar
andera de Chile
Mapa de General  Bernardo O'Higgins (PUB) (SCCH)

Último METAR

METAR SCCH 011300Z 03005KT 7000 SCT010 BKN070 08/07 Q1012

Último TAF

TAF SCCH 011100Z 0112/0124 32009KT 9999 SCT020 BKN050 TX13/0118Z TN09/0112Z TEMPO 0112/0114 18004KT 7000 SHRA BECMG 0116/0118 9999 SCT020

Últimas fotos cámaras

Imagen aerodromo General  Bernardo O'Higgins (PUB) (SCCH) N-Este tomada el 01-07-2022 01:30:32 Imagen aerodromo General  Bernardo O'Higgins (PUB) (SCCH) S-Este tomada el 01-07-2022 01:38:23

Último NOTAM

C2965/22 NOTAMN Q)SCEZ/QMRLC/IV/NBO/A/000/999/3635S07202W005 A)SCCH B)2207011200 C)2207011800 E)RWY 04/22 CLSD WIP